sensor_id;sensor_type;location;lat;lon;timestamp;pressure;altitude;pressure_sealevel;temperature;humidity
22862;BME280;11598;50.652;6.172;2023-10-31T00:08:07;94753.09;;;7.80;100.00
22862;BME280;11598;50.652;6.172;2023-10-31T00:18:08;94772.03;;;7.71;100.00
22862;BME280;11598;50.652;6.172;2023-10-31T00:28:08;94773.41;;;7.66;100.00
22862;BME280;11598;50.652;6.172;2023-10-31T00:38:08;94779.28;;;7.58;100.00
22862;BME280;11598;50.652;6.172;2023-10-31T00:48:08;94789.72;;;7.56;100.00
22862;BME280;11598;50.652;6.172;2023-10-31T00:58:09;94811.78;;;7.51;100.00
22862;BME280;11598;50.652;6.172;2023-10-31T01:08:09;94816.53;;;7.46;100.00
22862;BME280;11598;50.652;6.172;2023-10-31T01:18:09;94812.59;;;7.41;100.00
22862;BME280;11598;50.652;6.172;2023-10-31T01:28:10;94831.75;;;7.39;100.00
22862;BME280;11598;50.652;6.172;2023-10-31T01:38:10;94826.19;;;7.34;100.00
22862;BME280;11598;50.652;6.172;2023-10-31T01:48:10;94815.84;;;7.34;100.00
22862;BME280;11598;50.652;6.172;2023-10-31T01:58:11;94821.56;;;7.37;100.00
22862;BME280;11598;50.652;6.172;2023-10-31T02:08:12;94820.63;;;7.38;100.00
22862;BME280;11598;50.652;6.172;2023-10-31T02:18:12;94821.28;;;7.40;100.00
22862;BME280;11598;50.652;6.172;2023-10-31T02:28:13;94811.78;;;7.41;100.00
22862;BME280;11598;50.652;6.172;2023-10-31T02:38:13;94808.22;;;7.42;100.00
22862;BME280;11598;50.652;6.172;2023-10-31T02:48:13;94806.63;;;7.41;100.00
22862;BME280;11598;50.652;6.172;2023-10-31T02:58:13;94803.19;;;7.40;100.00
22862;BME280;11598;50.652;6.172;2023-10-31T03:08:14;94814.63;;;7.38;100.00
22862;BME280;11598;50.652;6.172;2023-10-31T03:18:14;94815.69;;;7.35;100.00
22862;BME280;11598;50.652;6.172;2023-10-31T03:28:19;94820.75;;;7.37;100.00
22862;BME280;11598;50.652;6.172;2023-10-31T03:38:20;94824.13;;;7.37;100.00
22862;BME280;11598;50.652;6.172;2023-10-31T03:48:20;94836.78;;;7.40;100.00
22862;BME280;11598;50.652;6.172;2023-10-31T03:58:21;94853.78;;;7.43;100.00
22862;BME280;11598;50.652;6.172;2023-10-31T04:08:22;94879.91;;;7.50;100.00
22862;BME280;11598;50.652;6.172;2023-10-31T04:18:22;94889.72;;;7.56;100.00
22862;BME280;11598;50.652;6.172;2023-10-31T04:28:23;94908.88;;;7.53;100.00
22862;BME280;11598;50.652;6.172;2023-10-31T04:38:23;94924.94;;;7.57;100.00
22862;BME280;11598;50.652;6.172;2023-10-31T04:48:23;94929.56;;;7.53;100.00
22862;BME280;11598;50.652;6.172;2023-10-31T04:58:24;94928.19;;;7.49;100.00
22862;BME280;11598;50.652;6.172;2023-10-31T05:08:24;94945.47;;;7.49;100.00
22862;BME280;11598;50.652;6.172;2023-10-31T05:18:24;94962.59;;;7.50;100.00
22862;BME280;11598;50.652;6.172;2023-10-31T05:28:25;94964.63;;;7.46;100.00
22862;BME280;11598;50.652;6.172;2023-10-31T05:38:25;94971.00;;;7.42;100.00
22862;BME280;11598;50.652;6.172;2023-10-31T05:48:25;94982.16;;;7.43;100.00
22862;BME280;11598;50.652;6.172;2023-10-31T05:58:25;94993.72;;;7.38;100.00
22862;BME280;11598;50.652;6.172;2023-10-31T06:08:26;95007.56;;;7.37;100.00
22862;BME280;11598;50.652;6.172;2023-10-31T06:18:29;95024.53;;;7.30;100.00
22862;BME280;11598;50.652;6.172;2023-10-31T06:28:29;95042.31;;;7.24;100.00
22862;BME280;11598;50.652;6.172;2023-10-31T06:38:30;95043.09;;;7.14;100.00
22862;BME280;11598;50.652;6.172;2023-10-31T06:48:30;95048.78;;;7.08;100.00
22862;BME280;11598;50.652;6.172;2023-10-31T06:58:30;95063.88;;;7.13;100.00
22862;BME280;11598;50.652;6.172;2023-10-31T07:08:31;95073.47;;;7.22;100.00
22862;BME280;11598;50.652;6.172;2023-10-31T07:18:31;95083.47;;;7.36;100.00
22862;BME280;11598;50.652;6.172;2023-10-31T07:28:31;95091.63;;;7.41;100.00
22862;BME280;11598;50.652;6.172;2023-10-31T07:38:32;95092.75;;;7.49;100.00
22862;BME280;11598;50.652;6.172;2023-10-31T07:48:33;95102.72;;;7.53;100.00
22862;BME280;11598;50.652;6.172;2023-10-31T07:58:33;95105.41;;;7.52;100.00
22862;BME280;11598;50.652;6.172;2023-10-31T08:08:34;95125.28;;;7.51;100.00
22862;BME280;11598;50.652;6.172;2023-10-31T08:18:34;95144.59;;;7.57;100.00
22862;BME280;11598;50.652;6.172;2023-10-31T08:28:35;95152.13;;;7.60;100.00
22862;BME280;11598;50.652;6.172;2023-10-31T08:38:35;95153.56;;;7.74;100.00
22862;BME280;11598;50.652;6.172;2023-10-31T08:48:36;95172.44;;;7.95;100.00
22862;BME280;11598;50.652;6.172;2023-10-31T09:08:39;95211.53;;;8.33;100.00
22862;BME280;11598;50.652;6.172;2023-10-31T09:18:39;95235.31;;;8.57;100.00
22862;BME280;11598;50.652;6.172;2023-10-31T09:28:39;95244.63;;;8.70;100.00
22862;BME280;11598;50.652;6.172;2023-10-31T09:38:42;95256.09;;;8.77;100.00
22862;BME280;11598;50.652;6.172;2023-10-31T09:48:43;95265.34;;;8.70;100.00
22862;BME280;11598;50.652;6.172;2023-10-31T09:58:43;95266.91;;;8.51;100.00
22862;BME280;11598;50.652;6.172;2023-10-31T10:08:45;95283.34;;;8.40;100.00
22862;BME280;11598;50.652;6.172;2023-10-31T10:18:45;95291.06;;;8.31;100.00
22862;BME280;11598;50.652;6.172;2023-10-31T10:28:46;95311.44;;;8.45;100.00
22862;BME280;11598;50.652;6.172;2023-10-31T10:38:51;95310.47;;;8.46;100.00
22862;BME280;11598;50.652;6.172;2023-10-31T10:48:56;95304.53;;;8.55;100.00
22862;BME280;11598;50.652;6.172;2023-10-31T10:59:03;95314.69;;;8.68;100.00
22862;BME280;11598;50.652;6.172;2023-10-31T11:09:08;95317.41;;;8.76;100.00
22862;BME280;11598;50.652;6.172;2023-10-31T11:19:11;95316.50;;;8.77;100.00
22862;BME280;11598;50.652;6.172;2023-10-31T11:29:11;95313.94;;;8.87;100.00
22862;BME280;11598;50.652;6.172;2023-10-31T11:39:17;95322.44;;;9.08;100.00
22862;BME280;11598;50.652;6.172;2023-10-31T11:49:46;95331.63;;;9.51;100.00
22862;BME280;11598;50.652;6.172;2023-10-31T11:59:49;95333.16;;;9.93;100.00
22862;BME280;11598;50.652;6.172;2023-10-31T12:09:49;95328.22;;;9.90;100.00
22862;BME280;11598;50.652;6.172;2023-10-31T12:19:54;95322.75;;;9.64;100.00
22862;BME280;11598;50.652;6.172;2023-10-31T12:30:01;95313.06;;;9.46;100.00
22862;BME280;11598;50.652;6.172;2023-10-31T12:40:01;95319.75;;;9.39;100.00
22862;BME280;11598;50.652;6.172;2023-10-31T12:50:15;95321.38;;;9.50;100.00
22862;BME280;11598;50.652;6.172;2023-10-31T13:00:18;95311.56;;;9.73;100.00
22862;BME280;11598;50.652;6.172;2023-10-31T13:10:29;95318.53;;;9.82;100.00
22862;BME280;11598;50.652;6.172;2023-10-31T13:20:29;95333.69;;;9.77;100.00
22862;BME280;11598;50.652;6.172;2023-10-31T13:30:32;95337.78;;;9.60;100.00
22862;BME280;11598;50.652;6.172;2023-10-31T13:40:32;95334.91;;;9.63;100.00
22862;BME280;11598;50.652;6.172;2023-10-31T13:50:32;95333.41;;;9.51;100.00
22862;BME280;11598;50.652;6.172;2023-10-31T14:00:33;95342.00;;;9.42;100.00
22862;BME280;11598;50.652;6.172;2023-10-31T14:10:35;95344.03;;;9.38;100.00
22862;BME280;11598;50.652;6.172;2023-10-31T14:20:35;95350.56;;;9.32;100.00
22862;BME280;11598;50.652;6.172;2023-10-31T14:30:35;95359.28;;;9.22;100.00
22862;BME280;11598;50.652;6.172;2023-10-31T14:40:36;95354.63;;;9.16;100.00
22862;BME280;11598;50.652;6.172;2023-10-31T14:50:36;95373.38;;;8.98;100.00
22862;BME280;11598;50.652;6.172;2023-10-31T15:00:37;95375.13;;;8.88;100.00
22862;BME280;11598;50.652;6.172;2023-10-31T15:10:37;95389.28;;;8.84;100.00
22862;BME280;11598;50.652;6.172;2023-10-31T15:20:37;95377.09;;;8.75;100.00
22862;BME280;11598;50.652;6.172;2023-10-31T15:30:38;95384.72;;;8.66;100.00
22862;BME280;11598;50.652;6.172;2023-10-31T15:40:38;95404.72;;;8.64;100.00
22862;BME280;11598;50.652;6.172;2023-10-31T15:50:39;95412.63;;;8.63;100.00
22862;BME280;11598;50.652;6.172;2023-10-31T16:00:39;95419.72;;;8.61;100.00
22862;BME280;11598;50.652;6.172;2023-10-31T16:10:39;95429.22;;;8.60;100.00
22862;BME280;11598;50.652;6.172;2023-10-31T16:20:40;95443.41;;;8.56;100.00
22862;BME280;11598;50.652;6.172;2023-10-31T16:30:42;95460.22;;;8.51;100.00
22862;BME280;11598;50.652;6.172;2023-10-31T16:40:42;95457.78;;;8.49;100.00
22862;BME280;11598;50.652;6.172;2023-10-31T16:50:43;95473.19;;;8.51;100.00
22862;BME280;11598;50.652;6.172;2023-10-31T17:00:43;95479.31;;;8.50;100.00
22862;BME280;11598;50.652;6.172;2023-10-31T17:10:43;95477.81;;;8.47;100.00
22862;BME280;11598;50.652;6.172;2023-10-31T17:20:44;95480.97;;;8.39;100.00
22862;BME280;11598;50.652;6.172;2023-10-31T17:30:45;95519.34;;;8.34;100.00
22862;BME280;11598;50.652;6.172;2023-10-31T17:40:45;95521.22;;;8.32;100.00
22862;BME280;11598;50.652;6.172;2023-10-31T17:50:46;95517.81;;;8.32;100.00
22862;BME280;11598;50.652;6.172;2023-10-31T18:00:46;95529.84;;;8.33;100.00
22862;BME280;11598;50.652;6.172;2023-10-31T18:10:46;95530.19;;;8.28;100.00
22862;BME280;11598;50.652;6.172;2023-10-31T18:20:47;95532.66;;;8.30;100.00
22862;BME280;11598;50.652;6.172;2023-10-31T18:30:48;95537.97;;;8.28;100.00
22862;BME280;11598;50.652;6.172;2023-10-31T18:40:48;95534.03;;;8.34;100.00
22862;BME280;11598;50.652;6.172;2023-10-31T18:50:49;95544.41;;;8.34;100.00
22862;BME280;11598;50.652;6.172;2023-10-31T19:00:49;95551.78;;;8.38;100.00
22862;BME280;11598;50.652;6.172;2023-10-31T19:10:49;95542.88;;;8.42;100.00
22862;BME280;11598;50.652;6.172;2023-10-31T19:20:50;95550.50;;;8.44;100.00
22862;BME280;11598;50.652;6.172;2023-10-31T19:30:50;95550.13;;;8.49;100.00
22862;BME280;11598;50.652;6.172;2023-10-31T19:40:51;95541.56;;;8.48;100.00
22862;BME280;11598;50.652;6.172;2023-10-31T19:50:51;95547.34;;;8.40;100.00
22862;BME280;11598;50.652;6.172;2023-10-31T20:00:51;95555.47;;;8.36;100.00
22862;BME280;11598;50.652;6.172;2023-10-31T20:10:52;95547.00;;;8.34;100.00
22862;BME280;11598;50.652;6.172;2023-10-31T20:20:52;95555.56;;;8.34;100.00
22862;BME280;11598;50.652;6.172;2023-10-31T20:30:53;95553.69;;;8.36;100.00
22862;BME280;11598;50.652;6.172;2023-10-31T20:40:53;95558.41;;;8.42;100.00
22862;BME280;11598;50.652;6.172;2023-10-31T20:50:53;95548.75;;;8.44;100.00
22862;BME280;11598;50.652;6.172;2023-10-31T21:00:54;95543.81;;;8.41;100.00
22862;BME280;11598;50.652;6.172;2023-10-31T21:10:56;95535.69;;;8.35;100.00
22862;BME280;11598;50.652;6.172;2023-10-31T21:20:56;95543.84;;;8.30;100.00
22862;BME280;11598;50.652;6.172;2023-10-31T21:30:57;95541.63;;;8.25;100.00
22862;BME280;11598;50.652;6.172;2023-10-31T21:40:57;95544.88;;;8.27;100.00
22862;BME280;11598;50.652;6.172;2023-10-31T21:50:58;95535.38;;;8.28;100.00
22862;BME280;11598;50.652;6.172;2023-10-31T22:00:58;95540.78;;;8.25;100.00
22862;BME280;11598;50.652;6.172;2023-10-31T22:10:59;95533.16;;;8.23;100.00
22862;BME280;11598;50.652;6.172;2023-10-31T22:20:59;95536.66;;;8.22;100.00
22862;BME280;11598;50.652;6.172;2023-10-31T22:31:00;95539.97;;;8.24;100.00
22862;BME280;11598;50.652;6.172;2023-10-31T22:41:00;95544.78;;;8.29;100.00
22862;BME280;11598;50.652;6.172;2023-10-31T22:51:01;95544.03;;;8.38;100.00
22862;BME280;11598;50.652;6.172;2023-10-31T23:01:01;95545.31;;;8.44;100.00
22862;BME280;11598;50.652;6.172;2023-10-31T23:11:06;95538.72;;;8.51;100.00
22862;BME280;11598;50.652;6.172;2023-10-31T23:21:06;95543.41;;;8.57;100.00
22862;BME280;11598;50.652;6.172;2023-10-31T23:31:06;95537.53;;;8.55;100.00
22862;BME280;11598;50.652;6.172;2023-10-31T23:41:07;95534.16;;;8.43;100.00
22862;BME280;11598;50.652;6.172;2023-10-31T23:51:09;95519.22;;;8.36;100.00
